Hobart, Pennsylvania
Current Conditions -  °F | °C
As of 9:53 AM on Monday 22 Dec 2014 (Local Time) from KTHV Reporting Station
Haze Haze  
Wind Chill: 28°   Ceiling: 3800
Heat Index: 28°   Visibility: 3mi
Dew Point: 25°   Wind: 3mph
Humidity: 88%   Direction: 10°N
Pressure: 30.3"   Gusts: NA
Location:  39.7863°N, 76.988°W
Report Text: KTHV 221453Z AUTO 01003KT 3SM BR OVC038 M02/M04 A3030 RMK AO2 SLP269 T10221039 53002
Loading
Personal Weather Stations






























Interactive Weather Map New forecast layout! Learn more

10-Day Weather Forecast

Advertisements
Track Severe Weather on mobile